Time;durP1;ratioP1;P1;durP2;ratioP2;P2;SDS_P1;SDS_P2;PMS_P1;PMS_P2;Temp;Humidity;BMP_temperature;BMP_pressure;BME280_temperature;BME280_humidity;BME280_pressure;Samples;Min_cycle;Max_cycle;Signal;HPM_P1;HPM_P2
2022/10/24 00:00:50;;;;;;;7.25;2.17;;;14.40;99.90;;;;;;5125488;27;20045;-82
2022/10/24 00:03:16;;;;;;;5.85;1.90;;;14.40;99.90;;;;;;5126899;27;20095;-81
2022/10/24 00:05:46;;;;;;;5.40;2.08;;;14.50;99.90;;;;;;5111397;27;20049;-78
2022/10/24 00:08:12;;;;;;;7.57;2.20;;;14.40;99.90;;;;;;5108870;27;20133;-82
2022/10/24 00:10:47;;;;;;;6.80;2.03;;;14.30;99.90;;;;;;5108081;27;20088;-79
2022/10/24 00:13:16;;;;;;;7.60;2.20;;;14.40;99.90;;;;;;5106693;27;20142;-79
2022/10/24 00:15:47;;;;;;;11.35;2.00;;;14.30;99.90;;;;;;5110277;27;20034;-81
2022/10/24 00:18:12;;;;;;;9.38;2.10;;;14.40;99.90;;;;;;5108284;27;20054;-80
2022/10/24 00:20:39;;;;;;;7.93;2.30;;;14.30;99.90;;;;;;5128904;27;20066;-81
2022/10/24 00:23:05;;;;;;;9.82;2.35;;;14.40;99.90;;;;;;5110741;27;20121;-78
2022/10/24 00:25:30;;;;;;;6.47;2.00;;;14.40;99.90;;;;;;5094916;27;20194;-80
2022/10/24 00:27:56;;;;;;;10.30;2.30;;;14.20;99.90;;;;;;5124668;27;20050;-80
2022/10/24 00:30:22;;;;;;;6.30;2.00;;;14.20;99.90;;;;;;5122368;27;20039;-78
2022/10/24 00:32:49;;;;;;;11.07;2.00;;;14.30;99.90;;;;;;5127620;27;20042;-80
2022/10/24 00:35:15;;;;;;;9.82;2.22;;;14.20;99.90;;;;;;5109932;27;20482;-78
2022/10/24 00:37:41;;;;;;;8.02;2.00;;;14.30;99.90;;;;;;5126604;27;20087;-83
2022/10/24 00:40:07;;;;;;;5.07;1.77;;;14.30;99.90;;;;;;5109377;27;20042;-81
2022/10/24 00:42:33;;;;;;;6.22;1.70;;;14.10;99.90;;;;;;5126717;27;20058;-81
2022/10/24 00:45:00;;;;;;;10.30;1.98;;;14.00;99.90;;;;;;5120739;27;20030;-81
2022/10/24 00:47:27;;;;;;;13.00;2.65;;;14.20;99.90;;;;;;5146563;27;20038;-77
2022/10/24 00:50:12;;;;;;;10.82;1.75;;;14.00;99.90;;;;;;5114918;27;20405;-78
2022/10/24 00:52:42;;;;;;;7.50;2.10;;;14.10;99.90;;;;;;5110402;27;20066;-81
2022/10/24 00:55:09;;;;;;;10.95;2.08;;;14.10;99.90;;;;;;5105538;27;20038;-78
2022/10/24 00:57:43;;;;;;;8.07;1.60;;;14.00;99.90;;;;;;5111557;27;20453;-78
2022/10/24 01:00:14;;;;;;;9.38;1.75;;;14.10;99.90;;;;;;5107543;27;20070;-79
2022/10/24 01:02:40;;;;;;;4.93;1.63;;;14.00;99.90;;;;;;5118153;27;20049;-79
2022/10/24 01:05:09;;;;;;;8.98;1.70;;;14.20;99.90;;;;;;5135567;27;20034;-78
2022/10/24 01:07:53;;;;;;;6.95;1.50;;;14.10;99.90;;;;;;5131398;27;20046;-78
2022/10/24 01:11:03;;;;;;;5.22;1.60;;;14.20;99.90;;;;;;5124140;27;20074;-79
2022/10/24 01:13:46;;;;;;;8.13;1.65;;;14.10;99.90;;;;;;5112529;27;20066;-78
2022/10/24 01:16:22;;;;;;;5.88;1.58;;;14.10;99.90;;;;;;5127973;27;20046;-80
2022/10/24 01:18:54;;;;;;;6.85;1.65;;;14.10;99.90;;;;;;5125761;27;20042;-79
2022/10/24 01:21:41;;;;;;;10.82;1.80;;;14.00;99.90;;;;;;5108839;27;20047;-79
2022/10/24 01:24:38;;;;;;;3.15;1.30;;;14.00;99.90;;;;;;5125103;27;20446;-77
2022/10/24 01:27:12;;;;;;;5.80;1.48;;;14.00;99.90;;;;;;5129422;27;20174;-77
2022/10/24 01:29:59;;;;;;;10.07;1.80;;;14.00;99.90;;;;;;5135059;27;20031;-78
2022/10/24 01:32:56;;;;;;;6.47;1.60;;;13.90;99.90;;;;;;5115230;27;20046;-81
2022/10/24 01:35:46;;;;;;;8.70;1.70;;;14.00;99.90;;;;;;5121101;27;20035;-79
2022/10/24 01:38:22;;;;;;;11.80;1.70;;;14.00;99.90;;;;;;5132177;27;20130;-78
2022/10/24 01:41:06;;;;;;;4.55;1.33;;;14.00;99.90;;;;;;5142082;27;20138;-81
2022/10/24 01:43:38;;;;;;;4.47;1.52;;;14.10;99.90;;;;;;5129408;27;20043;-79
2022/10/24 01:46:09;;;;;;;6.28;1.83;;;14.10;99.90;;;;;;5112479;27;20129;-76
2022/10/24 01:48:44;;;;;;;6.05;2.03;;;14.20;99.90;;;;;;5115183;27;20408;-78
2022/10/24 01:51:12;;;;;;;7.97;2.25;;;14.20;99.90;;;;;;5106879;27;20035;-82
2022/10/24 01:53:39;;;;;;;9.38;1.95;;;14.20;99.90;;;;;;5132282;27;20411;-78
2022/10/24 01:56:05;;;;;;;6.85;1.98;;;14.30;99.90;;;;;;5128509;27;20131;-77
2022/10/24 01:58:31;;;;;;;7.38;2.03;;;14.30;99.90;;;;;;5111385;27;20050;-81
2022/10/24 02:01:01;;;;;;;4.97;1.80;;;14.50;99.90;;;;;;5134849;27;20039;-79
2022/10/24 02:03:35;;;;;;;11.20;2.42;;;14.50;99.90;;;;;;5126418;27;20137;-80
2022/10/24 02:06:26;;;;;;;6.35;1.98;;;14.50;99.90;;;;;;5149489;27;20509;-81
2022/10/24 02:08:54;;;;;;;12.18;2.80;;;14.60;99.90;;;;;;5111229;27;20117;-80
2022/10/24 02:11:20;;;;;;;8.73;2.10;;;14.70;99.90;;;;;;5130158;27;20046;-80
2022/10/24 02:14:00;;;;;;;12.20;2.60;;;14.60;99.90;;;;;;5131505;27;20035;-79
2022/10/24 02:16:30;;;;;;;8.93;2.45;;;14.60;99.90;;;;;;5110112;27;20035;-82
2022/10/24 02:18:56;;;;;;;6.07;2.10;;;14.70;99.90;;;;;;5113146;27;20125;-79
2022/10/24 02:21:29;;;;;;;6.63;2.17;;;14.60;99.90;;;;;;5113159;27;20070;-80
2022/10/24 02:24:06;;;;;;;18.10;3.33;;;14.70;99.90;;;;;;5131251;27;20507;-81
2022/10/24 02:26:44;;;;;;;10.68;2.95;;;14.60;99.90;;;;;;5110014;27;20041;-79
2022/10/24 02:29:23;;;;;;;9.65;2.38;;;14.60;99.90;;;;;;5126237;27;20504;-80
2022/10/24 02:31:55;;;;;;;8.20;2.53;;;14.70;99.90;;;;;;5090400;27;20107;-82
2022/10/24 02:34:22;;;;;;;9.10;2.67;;;14.80;99.90;;;;;;5116544;27;20046;-79
2022/10/24 02:36:50;;;;;;;12.45;2.60;;;14.80;99.90;;;;;;5136581;27;20238;-79
2022/10/24 02:39:18;;;;;;;12.50;3.30;;;14.70;99.90;;;;;;5136791;27;20051;-80
2022/10/24 02:41:45;;;;;;;11.23;2.42;;;14.70;99.90;;;;;;5133680;27;20030;-78
2022/10/24 02:44:30;;;;;;;7.20;2.08;;;14.70;99.90;;;;;;5132687;27;20042;-78
2022/10/24 02:46:59;;;;;;;13.45;2.38;;;14.80;99.90;;;;;;5124738;27;20034;-79
2022/10/24 02:49:25;;;;;;;6.30;2.30;;;14.80;99.90;;;;;;5126521;27;20047;-79
2022/10/24 02:51:54;;;;;;;12.43;2.45;;;14.80;99.90;;;;;;5127294;27;20050;-79
2022/10/24 02:54:20;;;;;;;12.63;2.28;;;14.70;99.90;;;;;;5130656;27;20056;-79
2022/10/24 02:56:53;;;;;;;11.85;3.08;;;14.80;99.90;;;;;;5134274;27;20527;-79
2022/10/24 02:59:18;;;;;;;8.05;2.40;;;14.80;99.90;;;;;;5161615;27;20107;-79
2022/10/24 03:01:44;;;;;;;13.48;2.35;;;14.80;99.90;;;;;;5122088;27;20076;-76
2022/10/24 03:04:10;;;;;;;9.98;2.10;;;14.70;99.90;;;;;;5127168;27;20035;-79
2022/10/24 03:06:35;;;;;;;13.38;2.38;;;14.90;99.90;;;;;;5131820;27;20125;-80
2022/10/24 03:09:02;;;;;;;16.40;2.38;;;14.80;99.90;;;;;;5134978;27;20041;-78
2022/10/24 03:11:28;;;;;;;10.68;2.30;;;14.80;99.90;;;;;;5130473;27;20043;-80
2022/10/24 03:13:54;;;;;;;14.15;2.50;;;14.80;99.90;;;;;;5113979;27;20451;-80
2022/10/24 03:16:19;;;;;;;8.52;2.40;;;14.80;99.90;;;;;;5111062;27;20529;-79
2022/10/24 03:18:45;;;;;;;7.35;1.90;;;14.70;99.90;;;;;;5110696;27;20038;-79
2022/10/24 03:21:11;;;;;;;15.27;2.83;;;14.80;99.90;;;;;;5115084;27;20038;-79
2022/10/24 03:23:37;;;;;;;10.02;2.20;;;14.90;99.90;;;;;;5133775;27;20042;-79
2022/10/24 03:26:03;;;;;;;11.02;2.25;;;14.90;99.90;;;;;;5156296;27;20026;-81
2022/10/24 03:28:29;;;;;;;6.78;2.03;;;14.90;99.90;;;;;;5108368;27;20039;-82
2022/10/24 03:30:55;;;;;;;7.07;2.33;;;14.90;99.90;;;;;;5115250;27;20050;-79
2022/10/24 03:33:21;;;;;;;15.57;2.40;;;14.90;99.90;;;;;;5148358;27;20493;-76
2022/10/24 03:35:52;;;;;;;8.48;2.28;;;15.00;99.90;;;;;;5129297;27;20027;-81
2022/10/24 03:38:17;;;;;;;15.07;2.60;;;14.80;99.90;;;;;;5107375;27;20119;-80
2022/10/24 03:40:43;;;;;;;14.65;2.45;;;14.80;99.90;;;;;;5111556;27;20440;-77
2022/10/24 03:43:08;;;;;;;16.95;2.83;;;14.90;99.90;;;;;;5106042;27;20154;-80
2022/10/24 03:45:36;;;;;;;8.70;2.05;;;14.80;99.90;;;;;;5126211;27;20046;-80
2022/10/24 03:48:02;;;;;;;9.15;2.15;;;14.90;99.90;;;;;;5106872;27;20038;-80
2022/10/24 03:50:28;;;;;;;9.40;2.15;;;14.90;99.90;;;;;;5116696;27;20066;-79
2022/10/24 03:52:54;;;;;;;11.93;2.20;;;14.90;99.90;;;;;;5126999;27;20087;-79
2022/10/24 03:55:20;;;;;;;11.15;2.50;;;14.90;99.90;;;;;;5134039;27;20160;-79
2022/10/24 03:57:46;;;;;;;10.77;2.25;;;15.00;99.90;;;;;;5131343;27;20207;-80
2022/10/24 04:00:12;;;;;;;11.20;2.28;;;15.00;99.90;;;;;;5114841;27;20047;-81
2022/10/24 04:02:38;;;;;;;9.82;2.35;;;14.90;99.90;;;;;;5121390;27;20457;-82
2022/10/24 04:05:04;;;;;;;10.93;2.25;;;15.00;99.90;;;;;;5125758;27;20042;-82
2022/10/24 04:07:30;;;;;;;10.38;2.47;;;15.00;99.90;;;;;;5143722;27;20053;-80
2022/10/24 04:09:56;;;;;;;13.48;2.83;;;15.00;99.90;;;;;;5139840;27;20035;-77
2022/10/24 04:12:22;;;;;;;13.88;2.42;;;15.00;99.90;;;;;;5131997;27;20405;-82
2022/10/24 04:14:48;;;;;;;11.18;2.42;;;15.00;99.90;;;;;;5130470;27;20453;-79
2022/10/24 04:17:14;;;;;;;7.80;2.05;;;15.00;99.90;;;;;;5113203;27;20126;-79
2022/10/24 04:19:39;;;;;;;6.70;1.92;;;14.90;99.90;;;;;;5128445;27;20062;-79
2022/10/24 04:22:05;;;;;;;7.13;2.28;;;14.80;99.90;;;;;;5128870;27;20118;-79
2022/10/24 04:24:31;;;;;;;10.30;2.45;;;14.70;99.90;;;;;;5130619;27;20059;-77
2022/10/24 04:26:57;;;;;;;12.25;2.20;;;14.70;99.90;;;;;;5141942;27;20034;-78
2022/10/24 04:29:22;;;;;;;9.05;2.35;;;14.70;99.90;;;;;;5116385;27;20445;-77
2022/10/24 04:31:48;;;;;;;6.05;2.15;;;14.60;99.90;;;;;;5139694;27;20042;-78
2022/10/24 04:34:16;;;;;;;11.98;2.67;;;14.50;99.90;;;;;;5118020;27;20070;-80
2022/10/24 04:36:41;;;;;;;12.18;2.50;;;14.50;99.90;;;;;;5126152;27;20114;-77
2022/10/24 04:39:07;;;;;;;6.43;2.30;;;14.50;99.90;;;;;;5124536;27;20118;-77
2022/10/24 04:41:33;;;;;;;11.77;2.30;;;14.40;99.90;;;;;;5119535;27;20140;-78
2022/10/24 04:43:59;;;;;;;9.05;1.90;;;14.50;99.90;;;;;;5135964;27;20541;-79
2022/10/24 05:41:57;;;;;;;10.63;2.10;;;14.00;99.90;;;;;;5128085;27;20434;-77
2022/10/24 05:44:23;;;;;;;5.43;2.00;;;14.00;99.90;;;;;;5075722;28;20120;-80
2022/10/24 05:46:49;;;;;;;6.20;1.83;;;14.00;99.90;;;;;;5077341;28;20573;-80
2022/10/24 05:49:15;;;;;;;10.18;2.10;;;14.00;99.90;;;;;;5104496;28;20036;-80
2022/10/24 05:51:40;;;;;;;8.15;1.67;;;14.10;99.90;;;;;;5108339;28;20135;-80
2022/10/24 05:54:06;;;;;;;8.77;1.98;;;14.10;99.90;;;;;;5062981;28;20055;-79
2022/10/24 05:56:32;;;;;;;5.25;1.73;;;14.20;99.90;;;;;;5079382;28;20046;-80
2022/10/24 05:58:57;;;;;;;9.13;1.77;;;14.30;99.90;;;;;;5075409;28;20047;-80
2022/10/24 06:01:24;;;;;;;9.07;1.92;;;14.20;99.90;;;;;;5070017;28;20158;-80
2022/10/24 06:03:50;;;;;;;9.18;2.40;;;14.40;99.90;;;;;;5076737;28;20437;-79
2022/10/24 06:06:15;;;;;;;17.02;2.47;;;14.40;99.90;;;;;;5075266;28;20060;-77
2022/10/24 06:08:41;;;;;;;10.18;1.70;;;14.40;99.90;;;;;;5072182;28;20154;-79
2022/10/24 06:11:09;;;;;;;9.02;2.15;;;14.50;99.90;;;;;;5072900;28;20082;-78
2022/10/24 06:13:35;;;;;;;10.88;1.70;;;14.40;99.90;;;;;;5065030;28;20044;-77
2022/10/24 06:16:05;;;;;;;6.20;1.83;;;14.40;99.90;;;;;;5076078;28;20497;-79
2022/10/24 06:18:31;;;;;;;14.48;1.85;;;14.50;99.90;;;;;;5061381;28;20612;-77
2022/10/24 06:21:01;;;;;;;10.48;2.50;;;14.40;99.90;;;;;;5053385;28;20059;-80
2022/10/24 06:23:28;;;;;;;10.27;2.10;;;14.30;99.90;;;;;;5063504;28;20193;-77
2022/10/24 06:25:53;;;;;;;9.88;2.42;;;14.30;99.90;;;;;;5071634;28;20049;-78
2022/10/24 06:28:19;;;;;;;10.82;2.58;;;14.20;99.90;;;;;;5093032;28;22399;-79
2022/10/24 06:30:47;;;;;;;13.82;2.00;;;14.20;99.90;;;;;;5059525;28;20048;-79
2022/10/24 06:33:13;;;;;;;11.25;1.83;;;14.30;99.90;;;;;;5073741;28;20067;-80
2022/10/24 06:35:39;;;;;;;6.72;1.70;;;14.20;99.90;;;;;;5090122;28;20040;-84
2022/10/24 06:38:05;;;;;;;14.05;2.15;;;14.30;99.90;;;;;;5039797;28;20056;-80
2022/10/24 06:40:32;;;;;;;10.52;2.03;;;14.30;99.90;;;;;;5055151;28;20123;-80
2022/10/24 06:42:57;;;;;;;10.45;1.80;;;14.20;99.90;;;;;;5078832;28;20384;-83
2022/10/24 06:45:23;;;;;;;12.25;2.22;;;14.20;99.90;;;;;;5039033;28;20071;-79
2022/10/24 06:47:51;;;;;;;13.85;2.13;;;14.20;99.90;;;;;;5059573;28;20048;-81
2022/10/24 06:50:17;;;;;;;11.30;1.88;;;14.40;99.90;;;;;;5063584;28;20115;-80
2022/10/24 06:52:42;;;;;;;7.10;1.60;;;14.50;99.90;;;;;;5072067;28;20060;-79
2022/10/24 06:55:08;;;;;;;12.95;1.77;;;14.50;99.90;;;;;;5035545;28;20136;-78
2022/10/24 06:57:34;;;;;;;8.15;1.75;;;14.60;99.90;;;;;;5052456;28;20049;-79
2022/10/24 07:00:00;;;;;;;5.60;1.60;;;14.70;99.90;;;;;;5051285;28;20071;-80
2022/10/24 07:02:26;;;;;;;10.38;1.70;;;14.70;99.90;;;;;;5055180;28;20099;-79
2022/10/24 07:04:51;;;;;;;8.05;1.60;;;14.70;99.90;;;;;;5041671;28;20045;-79
2022/10/24 07:07:20;;;;;;;8.07;1.63;;;14.80;99.90;;;;;;5056900;28;20068;-77
2022/10/24 07:09:54;;;;;;;14.32;1.88;;;14.80;99.90;;;;;;5051342;28;20523;-79
2022/10/24 07:12:24;;;;;;;13.30;1.92;;;14.90;99.90;;;;;;5078310;28;20065;-79
2022/10/24 07:14:50;;;;;;;12.02;1.60;;;14.90;99.90;;;;;;5081663;28;20194;-78
2022/10/24 07:17:16;;;;;;;11.32;1.90;;;15.00;99.90;;;;;;5063132;28;20521;-82
2022/10/24 07:19:42;;;;;;;7.60;1.83;;;15.00;99.90;;;;;;5046047;28;20044;-84
2022/10/24 07:22:08;;;;;;;10.57;2.00;;;15.00;99.90;;;;;;5036491;28;20400;-79
2022/10/24 07:24:35;;;;;;;8.60;1.95;;;15.00;99.90;;;;;;5031584;28;20452;-82
2022/10/24 07:27:01;;;;;;;5.95;1.60;;;15.00;99.90;;;;;;5054324;28;20072;-81
2022/10/24 07:29:27;;;;;;;7.28;1.50;;;15.10;99.90;;;;;;5050613;28;20488;-81
2022/10/24 07:31:53;;;;;;;12.20;1.90;;;15.10;99.90;;;;;;5079850;28;20840;-80
2022/10/24 07:34:19;;;;;;;8.57;1.73;;;15.10;99.90;;;;;;5026704;28;20040;-83
2022/10/24 07:36:45;;;;;;;13.20;1.90;;;15.20;99.90;;;;;;5060019;28;20134;-79
2022/10/24 07:39:12;;;;;;;8.25;1.45;;;15.30;99.90;;;;;;5041932;28;20069;-81
2022/10/24 07:41:40;;;;;;;7.53;1.58;;;15.40;99.90;;;;;;5029929;28;20041;-80
2022/10/24 07:44:07;;;;;;;10.50;1.42;;;15.40;99.90;;;;;;5027412;28;20381;-81
2022/10/24 07:46:32;;;;;;;6.10;1.77;;;15.50;99.90;;;;;;5027860;28;20045;-78
2022/10/24 07:48:58;;;;;;;12.10;1.70;;;15.50;99.90;;;;;;5062584;28;20052;-82
2022/10/24 07:51:27;;;;;;;9.85;1.63;;;15.40;99.90;;;;;;5030312;28;20126;-81
2022/10/24 07:53:53;;;;;;;8.30;1.75;;;15.50;99.90;;;;;;5046527;28;20055;-78
2022/10/24 07:56:20;;;;;;;9.15;1.80;;;15.50;99.90;;;;;;5062311;28;20150;-80
2022/10/24 07:59:05;;;;;;;14.57;2.17;;;15.50;99.90;;;;;;5088149;28;20057;-76
2022/10/24 08:01:31;;;;;;;7.10;1.63;;;15.60;99.90;;;;;;5057437;28;20056;-77
2022/10/24 08:03:57;;;;;;;5.40;1.75;;;15.60;99.90;;;;;;5037829;28;20045;-77
2022/10/24 08:06:28;;;;;;;12.10;2.33;;;15.70;99.90;;;;;;5039154;28;20115;-79
2022/10/24 08:08:55;;;;;;;10.80;2.33;;;15.60;99.90;;;;;;5045880;28;20119;-79
2022/10/24 08:11:24;;;;;;;8.02;1.63;;;15.80;99.90;;;;;;5063175;28;20325;-80
2022/10/24 08:13:51;;;;;;;10.45;1.80;;;15.80;99.90;;;;;;5048452;28;20120;-79
2022/10/24 08:16:21;;;;;;;8.50;1.77;;;15.80;99.90;;;;;;5047767;28;20037;-79
2022/10/24 08:18:49;;;;;;;11.63;1.70;;;15.80;99.90;;;;;;5028207;28;20048;-81
2022/10/24 08:21:16;;;;;;;13.02;1.80;;;15.90;99.90;;;;;;5043382;28;20119;-77
2022/10/24 08:23:44;;;;;;;9.88;1.83;;;16.00;99.90;;;;;;5026536;28;20048;-82
2022/10/24 08:26:16;;;;;;;9.13;1.63;;;16.00;99.90;;;;;;5047656;28;20042;-81
2022/10/24 08:32:22;;;;;;;8.75;1.60;;;16.00;99.90;;;;;;5050189;28;20048;-79
2022/10/24 08:34:48;;;;;;;17.90;2.10;;;16.00;99.90;;;;;;5081513;28;20048;-80
2022/10/24 08:37:14;;;;;;;6.35;1.50;;;16.00;99.90;;;;;;5045388;28;20057;-80
2022/10/24 08:39:41;;;;;;;11.02;1.70;;;16.00;99.90;;;;;;5031117;28;20055;-79
2022/10/24 08:42:12;;;;;;;5.53;1.17;;;16.00;99.90;;;;;;5042292;28;20041;-76
2022/10/24 08:44:40;;;;;;;10.95;1.83;;;16.00;99.90;;;;;;5034421;28;20051;-77
2022/10/24 08:47:34;;;;;;;16.13;1.60;;;15.90;99.90;;;;;;5058835;28;20513;-78
2022/10/24 08:50:26;;;;;;;8.70;1.45;;;15.90;99.90;;;;;;5060070;28;20476;-79
2022/10/24 08:53:24;;;;;;;8.60;1.50;;;15.90;99.90;;;;;;5079699;28;20083;-81
2022/10/24 08:55:55;;;;;;;10.68;1.85;;;16.00;99.90;;;;;;5063570;28;20065;-78
2022/10/24 08:58:32;;;;;;;9.85;1.92;;;15.90;99.90;;;;;;5023748;28;20061;-76
2022/10/24 09:01:02;;;;;;;8.38;1.58;;;15.90;99.90;;;;;;5061979;28;20044;-79
2022/10/24 09:03:41;;;;;;;7.47;1.60;;;15.90;99.90;;;;;;5065123;28;20044;-77
2022/10/24 09:06:19;;;;;;;10.75;1.55;;;15.80;99.90;;;;;;5030203;28;20049;-79
2022/10/24 09:09:01;;;;;;;14.40;1.80;;;15.90;99.90;;;;;;5044786;28;20128;-79
2022/10/24 09:11:45;;;;;;;8.70;1.77;;;15.90;99.90;;;;;;5029349;28;20045;-77
2022/10/24 09:14:22;;;;;;;9.20;1.80;;;15.90;99.90;;;;;;5076579;28;20041;-79
2022/10/24 09:16:52;;;;;;;11.02;2.40;;;15.90;99.90;;;;;;5045751;28;20129;-81
2022/10/24 09:19:21;;;;;;;14.95;1.90;;;15.80;99.90;;;;;;5029558;28;20139;-82
2022/10/24 09:21:48;;;;;;;10.90;1.90;;;15.70;99.90;;;;;;5029317;28;20471;-81
2022/10/24 09:24:35;;;;;;;10.68;1.90;;;15.60;99.90;;;;;;5030576;28;20049;-80
2022/10/24 09:27:04;;;;;;;13.57;1.67;;;15.60;99.90;;;;;;5078382;28;20041;-79
2022/10/24 09:29:32;;;;;;;10.95;1.83;;;15.50;99.90;;;;;;5044013;28;20480;-77
2022/10/24 09:31:59;;;;;;;7.03;1.30;;;15.60;99.90;;;;;;5072920;28;20045;-80
2022/10/24 09:34:25;;;;;;;15.80;1.85;;;15.60;99.90;;;;;;5050744;28;20090;-79
2022/10/24 09:36:51;;;;;;;11.13;1.90;;;15.70;99.90;;;;;;5060420;28;20041;-79
2022/10/24 09:39:26;;;;;;;10.10;2.08;;;15.80;99.90;;;;;;5043658;28;20084;-79
2022/10/24 09:41:52;;;;;;;7.55;1.58;;;15.90;99.90;;;;;;5039185;28;20065;-80
2022/10/24 09:44:32;;;;;;;11.98;1.83;;;16.10;99.90;;;;;;5058266;28;20149;-80
2022/10/24 09:46:59;;;;;;;9.20;1.70;;;16.00;99.90;;;;;;5041244;28;20049;-79
2022/10/24 09:49:31;;;;;;;11.90;2.45;;;16.20;99.90;;;;;;5023556;28;20044;-80
2022/10/24 09:52:20;;;;;;;13.23;1.92;;;16.20;99.90;;;;;;5073893;28;20029;-79
2022/10/24 09:54:46;;;;;;;9.38;1.67;;;16.20;99.90;;;;;;5083188;28;20806;-77
2022/10/24 09:57:16;;;;;;;14.05;1.95;;;16.30;99.90;;;;;;5053841;28;20036;-78
2022/10/24 09:59:56;;;;;;;11.52;1.70;;;16.30;99.90;;;;;;5027725;28;20061;-80
2022/10/24 10:02:33;;;;;;;11.20;1.90;;;16.50;99.90;;;;;;5026450;28;20556;-80
2022/10/24 10:05:02;;;;;;;7.25;1.60;;;16.50;99.90;;;;;;5039310;28;20136;-79
2022/10/24 10:07:31;;;;;;;13.50;1.88;;;16.50;99.90;;;;;;5045323;28;20037;-81
2022/10/24 10:10:05;;;;;;;17.65;1.80;;;16.40;99.90;;;;;;5014183;28;20111;-78
2022/10/24 10:12:35;;;;;;;15.35;1.92;;;16.30;99.90;;;;;;5068403;28;20099;-79
2022/10/24 10:15:17;;;;;;;8.95;1.70;;;16.40;99.90;;;;;;5024896;28;20130;-80
2022/10/24 10:18:21;;;;;;;10.88;1.77;;;16.30;99.90;;;;;;5076723;28;20102;-78
2022/10/24 10:21:09;;;;;;;11.02;1.80;;;16.50;99.90;;;;;;4976505;28;20054;-80
2022/10/24 10:23:40;;;;;;;10.65;1.63;;;16.60;99.90;;;;;;4963682;28;20043;-77
2022/10/24 10:26:17;;;;;;;9.95;1.83;;;16.50;99.90;;;;;;4979085;28;20085;-77
2022/10/24 10:28:49;;;;;;;10.95;1.80;;;16.50;99.90;;;;;;5001565;28;20066;-77
2022/10/24 10:31:18;;;;;;;12.82;2.13;;;16.50;99.90;;;;;;4983557;28;20510;-78
2022/10/24 10:34:02;;;;;;;9.57;1.73;;;16.40;99.90;;;;;;4966284;28;20587;-79
2022/10/24 10:36:40;;;;;;;15.98;1.67;;;16.30;99.90;;;;;;4980166;28;20069;-80
2022/10/24 10:39:44;;;;;;;17.15;2.00;;;16.10;99.90;;;;;;4997855;28;20631;-79
2022/10/24 10:42:11;;;;;;;8.95;1.25;;;16.00;99.90;;;;;;4969222;28;20046;-81
2022/10/24 10:45:15;;;;;;;13.48;1.95;;;16.00;99.90;;;;;;4983264;28;20046;-81
2022/10/24 10:47:57;;;;;;;8.02;1.65;;;15.90;99.90;;;;;;5002766;28;20099;-78
2022/10/24 10:50:30;;;;;;;12.05;2.15;;;15.70;99.90;;;;;;5001148;28;20082;-80
2022/10/24 10:53:09;;;;;;;10.30;1.75;;;15.70;99.90;;;;;;5007353;28;20046;-80
2022/10/24 10:56:16;;;;;;;11.68;1.90;;;15.70;99.90;;;;;;4970378;28;20049;-78
2022/10/24 10:58:58;;;;;;;18.80;1.80;;;15.60;99.90;;;;;;5058467;28;20102;-79
2022/10/24 11:01:42;;;;;;;8.80;2.08;;;15.70;99.90;;;;;;5082508;28;20049;-80
2022/10/24 11:04:32;;;;;;;14.60;2.10;;;15.80;99.90;;;;;;5034964;28;20049;-77
2022/10/24 11:07:04;;;;;;;10.10;1.85;;;16.30;99.90;;;;;;5052812;28;20138;-77
2022/10/24 11:09:44;;;;;;;13.15;1.63;;;16.40;99.90;;;;;;5052534;28;20540;-78
2022/10/24 11:12:24;;;;;;;9.60;1.42;;;16.50;99.90;;;;;;5083504;28;20037;-79
2022/10/24 11:15:07;;;;;;;11.15;1.90;;;16.50;99.90;;;;;;5049688;28;20060;-78
2022/10/24 11:17:44;;;;;;;12.95;1.73;;;16.50;99.90;;;;;;5030380;28;20128;-81
2022/10/24 11:20:22;;;;;;;9.57;1.80;;;16.70;99.90;;;;;;5064378;28;20120;-80
2022/10/24 11:22:57;;;;;;;13.85;2.28;;;16.80;99.90;;;;;;5033086;28;20053;-79
2022/10/24 11:25:33;;;;;;;11.88;1.65;;;16.70;99.90;;;;;;5048419;28;20078;-77
2022/10/24 11:28:18;;;;;;;15.32;2.05;;;16.60;99.90;;;;;;5053867;28;20128;-77
2022/10/24 11:31:05;;;;;;;10.13;1.90;;;16.50;99.90;;;;;;5041796;28;20438;-81
2022/10/24 11:33:45;;;;;;;10.93;1.77;;;16.50;99.90;;;;;;5037712;28;20049;-80
2022/10/24 11:36:44;;;;;;;22.00;8.95;;;16.50;99.90;;;;;;5032142;28;20087;-79
2022/10/24 11:39:26;;;;;;;11.75;3.90;;;16.50;99.90;;;;;;5038689;28;20057;-79
2022/10/24 11:41:55;;;;;;;9.93;1.95;;;16.40;99.90;;;;;;5052645;28;20104;-80
2022/10/24 11:44:52;;;;;;;11.98;2.10;;;16.30;99.90;;;;;;5069284;28;20041;-79
2022/10/24 11:47:24;;;;;;;16.92;2.80;;;16.20;99.90;;;;;;5069078;28;20056;-77
2022/10/24 11:50:02;;;;;;;10.35;2.45;;;16.30;99.90;;;;;;5036235;28;20083;-79
2022/10/24 11:52:31;;;;;;;11.02;2.80;;;16.30;99.90;;;;;;5051888;28;20057;-78
2022/10/24 11:55:05;;;;;;;10.27;2.60;;;16.40;99.90;;;;;;5052328;28;20044;-81
2022/10/24 11:57:32;;;;;;;10.05;2.60;;;16.40;99.90;;;;;;5083171;28;20184;-81
2022/10/24 11:59:58;;;;;;;9.50;2.97;;;16.40;99.90;;;;;;5065142;28;20558;-81
2022/10/24 12:02:36;;;;;;;12.77;3.70;;;16.40;99.90;;;;;;5064893;28;20350;-78
2022/10/24 12:05:19;;;;;;;12.77;2.85;;;16.30;99.90;;;;;;5052395;28;20049;-79
2022/10/24 12:08:16;;;;;;;8.50;3.08;;;16.30;99.90;;;;;;5084857;28;20063;-78
2022/10/24 12:10:59;;;;;;;17.95;3.88;;;16.40;99.90;;;;;;5068950;28;20056;-77
2022/10/24 12:13:55;;;;;;;11.95;3.40;;;16.30;99.90;;;;;;5026146;28;20457;-80
2022/10/24 12:16:59;;;;;;;16.05;3.85;;;16.50;99.90;;;;;;5029967;28;20053;-78
2022/10/24 12:19:26;;;;;;;15.43;1.75;;;16.50;99.90;;;;;;5050361;28;20088;-80
2022/10/24 12:22:03;;;;;;;9.13;1.70;;;16.60;99.90;;;;;;5080029;28;20559;-82
2022/10/24 12:24:37;;;;;;;7.88;2.00;;;16.70;99.90;;;;;;5047380;28;20033;-77
2022/10/24 12:27:47;;;;;;;8.85;1.92;;;16.70;99.90;;;;;;5033514;28;20095;-77
2022/10/24 12:30:20;;;;;;;9.85;2.45;;;16.80;99.90;;;;;;5025440;28;20049;-78
2022/10/24 12:32:52;;;;;;;9.55;2.08;;;16.90;99.90;;;;;;5083516;28;20053;-79
2022/10/24 12:35:44;;;;;;;13.57;2.20;;;16.80;99.90;;;;;;5034839;28;20117;-81
2022/10/24 12:38:36;;;;;;;16.17;3.40;;;16.70;99.90;;;;;;5053786;28;20404;-81
2022/10/24 12:41:05;;;;;;;7.93;1.60;;;16.60;99.90;;;;;;5067871;28;20048;-79
2022/10/24 12:43:43;;;;;;;8.98;1.85;;;16.40;99.90;;;;;;5050656;28;20048;-76
2022/10/24 12:46:15;;;;;;;14.95;1.98;;;16.50;99.90;;;;;;5051085;28;20044;-82
2022/10/24 12:49:07;;;;;;;13.45;2.97;;;16.60;99.90;;;;;;5051153;28;20117;-80
2022/10/24 12:51:36;;;;;;;19.35;2.10;;;16.70;99.90;;;;;;5034947;28;20053;-77
2022/10/24 12:54:10;;;;;;;11.40;1.42;;;16.70;99.90;;;;;;5052753;28;20511;-77
2022/10/24 12:56:59;;;;;;;7.30;1.55;;;16.90;99.90;;;;;;5067135;28;20044;-82
2022/10/24 12:59:31;;;;;;;15.30;4.93;;;17.00;99.90;;;;;;5049446;28;20049;-80
2022/10/24 13:02:12;;;;;;;15.15;5.22;;;17.20;99.90;;;;;;5044136;28;20052;-76
2022/10/24 13:05:07;;;;;;;14.65;1.88;;;17.10;99.90;;;;;;5032061;28;20503;-78
2022/10/24 13:08:04;;;;;;;9.73;2.10;;;17.10;99.90;;;;;;4991963;28;20057;-77
2022/10/24 13:11:05;;;;;;;9.00;1.80;;;17.00;99.90;;;;;;5013268;28;20096;-78
2022/10/24 13:13:55;;;;;;;8.70;2.17;;;17.20;99.90;;;;;;4995828;28;20065;-77
2022/10/24 13:16:36;;;;;;;10.68;1.85;;;17.40;99.90;;;;;;4974855;28;20128;-78
2022/10/24 13:19:06;;;;;;;10.02;2.17;;;17.30;99.90;;;;;;5008787;28;20057;-77
2022/10/24 13:21:50;;;;;;;6.38;1.55;;;17.30;99.90;;;;;;4957421;28;20517;-83
2022/10/24 13:24:15;;;;;;;12.27;2.08;;;17.10;99.90;;;;;;5003594;28;20047;-79
2022/10/24 13:26:44;;;;;;;9.65;1.63;;;16.90;99.90;;;;;;4966535;28;20382;-76
2022/10/24 13:29:24;;;;;;;10.15;2.08;;;16.80;99.90;;;;;;4996489;28;20057;-77
2022/10/24 13:31:51;;;;;;;9.48;2.25;;;16.60;99.90;;;;;;4986847;28;20060;-80
2022/10/24 13:34:41;;;;;;;11.88;3.38;;;16.60;99.90;;;;;;4979269;28;20088;-80
2022/10/24 13:37:09;;;;;;;15.32;4.00;;;16.50;99.90;;;;;;4969349;28;20421;-79
2022/10/24 13:39:45;;;;;;;13.02;2.45;;;16.60;99.90;;;;;;4971254;28;20390;-79
2022/10/24 13:42:20;;;;;;;8.60;2.30;;;16.60;99.90;;;;;;4989997;28;20221;-80
2022/10/24 13:44:50;;;;;;;12.30;2.03;;;16.60;99.90;;;;;;5036680;28;20053;-80
2022/10/24 13:47:41;;;;;;;11.55;2.22;;;16.50;99.90;;;;;;5050318;28;20543;-80
2022/10/24 13:50:20;;;;;;;8.35;2.67;;;16.30;99.90;;;;;;5017394;28;20128;-79
2022/10/24 13:52:58;;;;;;;11.68;2.92;;;16.40;99.90;;;;;;5034009;28;20053;-79
2022/10/24 13:55:35;;;;;;;9.65;2.30;;;16.50;99.90;;;;;;5024348;28;20056;-76
2022/10/24 13:58:04;;;;;;;10.80;3.30;;;16.60;99.90;;;;;;5074635;28;20056;-79
2022/10/24 14:00:34;;;;;;;12.15;1.90;;;16.60;99.90;;;;;;5043080;28;20045;-80
2022/10/24 14:03:10;;;;;;;10.43;2.17;;;16.50;99.90;;;;;;5050023;28;20045;-77
2022/10/24 14:06:00;;;;;;;13.35;3.08;;;16.40;99.90;;;;;;5087209;28;20056;-76
2022/10/24 14:08:35;;;;;;;12.80;2.58;;;16.40;99.90;;;;;;5069938;28;20065;-79